New York, New York
Traffic Map
Current Weather Conditions
New York, New York
Clear
Clear

Feels Like: 5°
Wind Chill: Ceiling: Unl
Heat Index: Visibility: 10mi
Dew Point: Wind: 5mph
Humidity: 65% Direction: ° ()
Pressure: 30.21in Gusts: 0mph
Raw Report DataKNYC 220151Z AUTO VRB04KT 10SM CLR 06/00 A3021 RMK AO2 SLP221 T00610000 $
Traffic Incident Summary
Active as of:
Severity:
Category:
InformationThere was an issue retrieving the traffic information for this location. Please try a different location or try again shortly.
Advertisements
Track Severe Weather on mobile